sensor_id;sensor_type;location;lat;lon;timestamp;pressure;altitude;pressure_sealevel;temperature;humidity
20987;BME280;10652;50.306;8.570;2024-02-21T00:00:15;98761.81;;;6.98;86.96
20987;BME280;10652;50.306;8.570;2024-02-21T00:04:17;98753.09;;;6.99;87.34
20987;BME280;10652;50.306;8.570;2024-02-21T00:08:19;98751.44;;;6.95;88.15
20987;BME280;10652;50.306;8.570;2024-02-21T00:12:21;98759.50;;;6.84;88.41
20987;BME280;10652;50.306;8.570;2024-02-21T00:16:23;98754.44;;;6.76;89.25
20987;BME280;10652;50.306;8.570;2024-02-21T00:20:25;98725.81;;;6.72;89.55
20987;BME280;10652;50.306;8.570;2024-02-21T00:24:28;98724.03;;;6.72;89.70
20987;BME280;10652;50.306;8.570;2024-02-21T00:28:30;98716.34;;;6.66;89.58
20987;BME280;10652;50.306;8.570;2024-02-21T00:32:32;98707.66;;;6.64;89.79
20987;BME280;10652;50.306;8.570;2024-02-21T00:36:36;98705.06;;;6.64;88.99
20987;BME280;10652;50.306;8.570;2024-02-21T00:40:38;98703.34;;;6.63;88.94
20987;BME280;10652;50.306;8.570;2024-02-21T00:44:40;98704.28;;;6.59;89.09
20987;BME280;10652;50.306;8.570;2024-02-21T00:48:42;98700.97;;;6.51;89.78
20987;BME280;10652;50.306;8.570;2024-02-21T00:52:44;98715.06;;;6.44;90.18
20987;BME280;10652;50.306;8.570;2024-02-21T00:56:47;98707.34;;;6.36;90.90
20987;BME280;10652;50.306;8.570;2024-02-21T01:00:49;98734.31;;;6.38;91.38
20987;BME280;10652;50.306;8.570;2024-02-21T01:04:51;98724.75;;;6.37;91.37
20987;BME280;10652;50.306;8.570;2024-02-21T01:08:53;98735.16;;;6.39;90.16
20987;BME280;10652;50.306;8.570;2024-02-21T01:12:55;98735.16;;;6.39;89.75
20987;BME280;10652;50.306;8.570;2024-02-21T01:16:57;98716.81;;;6.42;90.08
20987;BME280;10652;50.306;8.570;2024-02-21T01:20:59;98717.59;;;6.47;90.04
20987;BME280;10652;50.306;8.570;2024-02-21T01:25:02;98720.03;;;6.55;90.14
20987;BME280;10652;50.306;8.570;2024-02-21T01:29:04;98704.38;;;6.56;89.85
20987;BME280;10652;50.306;8.570;2024-02-21T01:33:06;98692.19;;;6.55;89.59
20987;BME280;10652;50.306;8.570;2024-02-21T01:37:08;98686.09;;;6.56;89.55
20987;BME280;10652;50.306;8.570;2024-02-21T01:41:10;98680.00;;;6.57;89.40
20987;BME280;10652;50.306;8.570;2024-02-21T01:45:13;98663.44;;;6.58;89.55
20987;BME280;10652;50.306;8.570;2024-02-21T01:49:20;98672.94;;;6.62;89.73
20987;BME280;10652;50.306;8.570;2024-02-21T01:53:26;98659.88;;;6.62;89.28
20987;BME280;10652;50.306;8.570;2024-02-21T01:57:30;98662.50;;;6.61;89.38
20987;BME280;10652;50.306;8.570;2024-02-21T02:01:32;98660.78;;;6.60;89.58
20987;BME280;10652;50.306;8.570;2024-02-21T02:05:34;98650.28;;;6.63;89.69
20987;BME280;10652;50.306;8.570;2024-02-21T02:09:36;98637.13;;;6.67;90.14
20987;BME280;10652;50.306;8.570;2024-02-21T02:13:39;98650.13;;;6.70;89.42
20987;BME280;10652;50.306;8.570;2024-02-21T02:17:41;98648.38;;;6.69;89.09
20987;BME280;10652;50.306;8.570;2024-02-21T02:21:54;98630.03;;;6.72;89.51
20987;BME280;10652;50.306;8.570;2024-02-21T02:25:58;98619.47;;;6.78;89.46
20987;BME280;10652;50.306;8.570;2024-02-21T02:30:01;98615.09;;;6.80;89.15
20987;BME280;10652;50.306;8.570;2024-02-21T02:34:03;98618.25;;;6.95;91.56
20987;BME280;10652;50.306;8.570;2024-02-21T02:38:05;98622.31;;;7.05;90.04
20987;BME280;10652;50.306;8.570;2024-02-21T02:42:07;98601.38;;;7.08;88.91
20987;BME280;10652;50.306;8.570;2024-02-21T02:46:10;98604.97;;;7.04;87.45
20987;BME280;10652;50.306;8.570;2024-02-21T02:50:13;98596.31;;;7.00;87.25
20987;BME280;10652;50.306;8.570;2024-02-21T02:54:15;98603.28;;;7.00;86.97
20987;BME280;10652;50.306;8.570;2024-02-21T02:58:17;98600.66;;;7.00;86.44
20987;BME280;10652;50.306;8.570;2024-02-21T03:02:19;98599.09;;;6.94;85.68
20987;BME280;10652;50.306;8.570;2024-02-21T03:06:21;98580.09;;;6.86;85.11
20987;BME280;10652;50.306;8.570;2024-02-21T03:10:24;98574.94;;;6.84;85.82
20987;BME280;10652;50.306;8.570;2024-02-21T03:14:26;98562.75;;;6.85;85.71
20987;BME280;10652;50.306;8.570;2024-02-21T03:18:28;98559.22;;;6.86;85.92
20987;BME280;10652;50.306;8.570;2024-02-21T03:22:31;98549.72;;;6.83;85.24
20987;BME280;10652;50.306;8.570;2024-02-21T03:26:34;98542.75;;;6.82;85.50
20987;BME280;10652;50.306;8.570;2024-02-21T03:30:36;98530.69;;;6.78;85.15
20987;BME280;10652;50.306;8.570;2024-02-21T03:34:38;98515.91;;;6.77;85.45
20987;BME280;10652;50.306;8.570;2024-02-21T03:38:41;98509.88;;;6.75;85.19
20987;BME280;10652;50.306;8.570;2024-02-21T03:42:43;98517.78;;;6.72;85.56
20987;BME280;10652;50.306;8.570;2024-02-21T03:46:45;98530.09;;;6.67;85.44
20987;BME280;10652;50.306;8.570;2024-02-21T03:50:47;98540.59;;;6.64;86.17
20987;BME280;10652;50.306;8.570;2024-02-21T03:54:49;98537.13;;;6.64;87.71
20987;BME280;10652;50.306;8.570;2024-02-21T03:58:52;98544.09;;;6.63;88.37
20987;BME280;10652;50.306;8.570;2024-02-21T04:02:54;98527.72;;;6.58;89.21
20987;BME280;10652;50.306;8.570;2024-02-21T04:06:57;98540.13;;;6.47;90.27
20987;BME280;10652;50.306;8.570;2024-02-21T04:11:00;98541.13;;;6.41;90.60
20987;BME280;10652;50.306;8.570;2024-02-21T04:15:02;98536.84;;;6.39;91.45
20987;BME280;10652;50.306;8.570;2024-02-21T04:19:04;98529.81;;;6.41;92.02
20987;BME280;10652;50.306;8.570;2024-02-21T04:23:06;98501.81;;;6.49;92.33
20987;BME280;10652;50.306;8.570;2024-02-21T04:27:08;98488.72;;;6.51;91.63
20987;BME280;10652;50.306;8.570;2024-02-21T04:31:10;98502.63;;;6.51;92.24
20987;BME280;10652;50.306;8.570;2024-02-21T04:35:12;98499.16;;;6.51;92.13
20987;BME280;10652;50.306;8.570;2024-02-21T04:39:14;98499.31;;;6.44;91.96
20987;BME280;10652;50.306;8.570;2024-02-21T04:43:17;98506.31;;;6.42;92.53
20987;BME280;10652;50.306;8.570;2024-02-21T04:47:19;98500.22;;;6.43;92.30
20987;BME280;10652;50.306;8.570;2024-02-21T04:51:25;98498.47;;;6.44;92.79
20987;BME280;10652;50.306;8.570;2024-02-21T04:55:27;98485.41;;;6.44;92.64
20987;BME280;10652;50.306;8.570;2024-02-21T04:59:29;98481.06;;;6.43;92.87
20987;BME280;10652;50.306;8.570;2024-02-21T05:03:31;98485.41;;;6.44;92.68
20987;BME280;10652;50.306;8.570;2024-02-21T05:07:34;98477.59;;;6.44;93.01
20987;BME280;10652;50.306;8.570;2024-02-21T05:11:37;98486.28;;;6.43;92.99
20987;BME280;10652;50.306;8.570;2024-02-21T05:15:42;98493.16;;;6.47;93.50
20987;BME280;10652;50.306;8.570;2024-02-21T05:19:44;98489.56;;;6.51;93.50
20987;BME280;10652;50.306;8.570;2024-02-21T05:23:46;98498.16;;;6.56;92.97
20987;BME280;10652;50.306;8.570;2024-02-21T05:27:51;98494.56;;;6.60;92.31
20987;BME280;10652;50.306;8.570;2024-02-21T05:31:55;98507.66;;;6.59;91.64
20987;BME280;10652;50.306;8.570;2024-02-21T05:35:59;98493.59;;;6.64;91.05
20987;BME280;10652;50.306;8.570;2024-02-21T05:40:01;98485.84;;;6.61;89.90
20987;BME280;10652;50.306;8.570;2024-02-21T05:44:03;98475.56;;;6.55;89.47
20987;BME280;10652;50.306;8.570;2024-02-21T05:48:06;98464.34;;;6.52;90.07
20987;BME280;10652;50.306;8.570;2024-02-21T05:52:08;98458.34;;;6.48;90.10
20987;BME280;10652;50.306;8.570;2024-02-21T05:56:11;98435.88;;;6.41;90.02
20987;BME280;10652;50.306;8.570;2024-02-21T06:00:14;98425.78;;;6.26;89.86
20987;BME280;10652;50.306;8.570;2024-02-21T06:04:16;98421.00;;;6.08;90.22
20987;BME280;10652;50.306;8.570;2024-02-21T06:08:19;98412.84;;;5.84;91.89
20987;BME280;10652;50.306;8.570;2024-02-21T06:12:22;98404.41;;;5.73;92.78
20987;BME280;10652;50.306;8.570;2024-02-21T06:16:24;98407.09;;;5.69;93.25
20987;BME280;10652;50.306;8.570;2024-02-21T06:20:26;98412.47;;;5.63;93.61
20987;BME280;10652;50.306;8.570;2024-02-21T06:24:28;98420.41;;;5.56;94.38
20987;BME280;10652;50.306;8.570;2024-02-21T06:28:30;98425.63;;;5.55;94.65
20987;BME280;10652;50.306;8.570;2024-02-21T06:32:32;98430.09;;;5.50;94.16
20987;BME280;10652;50.306;8.570;2024-02-21T06:36:34;98429.28;;;5.48;94.76
20987;BME280;10652;50.306;8.570;2024-02-21T06:40:36;98412.88;;;5.41;94.75
20987;BME280;10652;50.306;8.570;2024-02-21T06:44:41;98407.69;;;5.41;94.77
20987;BME280;10652;50.306;8.570;2024-02-21T06:48:43;98405.06;;;5.43;94.71
20987;BME280;10652;50.306;8.570;2024-02-21T06:52:48;98417.13;;;5.47;96.03
20987;BME280;10652;50.306;8.570;2024-02-21T06:56:51;98419.72;;;5.47;95.38
20987;BME280;10652;50.306;8.570;2024-02-21T07:00:53;98431.88;;;5.48;95.76
20987;BME280;10652;50.306;8.570;2024-02-21T07:04:55;98426.47;;;5.57;95.61
20987;BME280;10652;50.306;8.570;2024-02-21T07:08:57;98432.25;;;5.71;94.98
20987;BME280;10652;50.306;8.570;2024-02-21T07:12:59;98417.97;;;5.87;94.37
20987;BME280;10652;50.306;8.570;2024-02-21T07:17:02;98411.81;;;5.91;93.52
20987;BME280;10652;50.306;8.570;2024-02-21T07:21:04;98407.25;;;5.99;93.19
20987;BME280;10652;50.306;8.570;2024-02-21T07:25:06;98412.34;;;6.05;92.32
20987;BME280;10652;50.306;8.570;2024-02-21T07:29:09;98419.06;;;6.16;92.47
20987;BME280;10652;50.306;8.570;2024-02-21T07:33:11;98431.75;;;6.32;92.66
20987;BME280;10652;50.306;8.570;2024-02-21T07:37:13;98429.53;;;6.53;89.85
20987;BME280;10652;50.306;8.570;2024-02-21T07:41:15;98425.69;;;6.66;88.75
20987;BME280;10652;50.306;8.570;2024-02-21T07:45:18;98426.25;;;6.78;85.59
20987;BME280;10652;50.306;8.570;2024-02-21T07:49:25;98423.25;;;6.93;84.20
20987;BME280;10652;50.306;8.570;2024-02-21T07:53:28;98423.75;;;7.08;83.40
20987;BME280;10652;50.306;8.570;2024-02-21T07:57:30;98414.66;;;7.21;81.49
20987;BME280;10652;50.306;8.570;2024-02-21T08:01:32;98415.16;;;7.33;81.46
20987;BME280;10652;50.306;8.570;2024-02-21T08:05:35;98418.53;;;7.37;80.05
20987;BME280;10652;50.306;8.570;2024-02-21T08:09:39;98407.09;;;7.41;80.28
20987;BME280;10652;50.306;8.570;2024-02-21T08:13:42;98398.94;;;7.53;78.97
20987;BME280;10652;50.306;8.570;2024-02-21T08:17:44;98396.34;;;7.52;77.83
20987;BME280;10652;50.306;8.570;2024-02-21T08:21:46;98380.75;;;7.49;77.15
20987;BME280;10652;50.306;8.570;2024-02-21T08:25:48;98383.13;;;7.56;76.57
20987;BME280;10652;50.306;8.570;2024-02-21T08:29:51;98382.97;;;7.62;75.97
20987;BME280;10652;50.306;8.570;2024-02-21T08:33:53;98382.31;;;7.54;74.77
20987;BME280;10652;50.306;8.570;2024-02-21T08:37:55;98373.56;;;7.55;74.91
20987;BME280;10652;50.306;8.570;2024-02-21T08:41:57;98375.88;;;7.66;74.73
20987;BME280;10652;50.306;8.570;2024-02-21T08:46:00;98376.34;;;7.78;73.48
20987;BME280;10652;50.306;8.570;2024-02-21T08:50:02;98365.66;;;7.86;73.53
20987;BME280;10652;50.306;8.570;2024-02-21T08:54:19;98366.16;;;7.99;72.61
20987;BME280;10652;50.306;8.570;2024-02-21T08:58:21;98354.53;;;8.07;72.93
20987;BME280;10652;50.306;8.570;2024-02-21T09:02:25;98343.03;;;8.13;71.06
20987;BME280;10652;50.306;8.570;2024-02-21T09:06:27;98332.69;;;8.08;70.13
20987;BME280;10652;50.306;8.570;2024-02-21T09:10:30;98335.16;;;8.13;69.66
20987;BME280;10652;50.306;8.570;2024-02-21T09:14:34;98335.16;;;8.13;68.97
20987;BME280;10652;50.306;8.570;2024-02-21T09:18:36;98317.47;;;8.21;69.30
20987;BME280;10652;50.306;8.570;2024-02-21T09:22:38;98316.75;;;8.42;68.19
20987;BME280;10652;50.306;8.570;2024-02-21T09:26:42;98319.00;;;8.53;67.31
20987;BME280;10652;50.306;8.570;2024-02-21T09:30:45;98305.59;;;8.62;66.59
20987;BME280;10652;50.306;8.570;2024-02-21T09:34:47;98308.63;;;8.75;66.33
20987;BME280;10652;50.306;8.570;2024-02-21T09:38:50;98305.47;;;8.90;66.81
20987;BME280;10652;50.306;8.570;2024-02-21T09:43:05;98302.78;;;9.14;64.97
20987;BME280;10652;50.306;8.570;2024-02-21T09:47:24;98297.22;;;9.24;64.38
20987;BME280;10652;50.306;8.570;2024-02-21T09:51:34;98289.22;;;9.27;63.84
20987;BME280;10652;50.306;8.570;2024-02-21T09:55:37;98288.03;;;9.35;64.22
20987;BME280;10652;50.306;8.570;2024-02-21T09:59:42;98288.25;;;9.52;63.14
20987;BME280;10652;50.306;8.570;2024-02-21T10:03:45;98287.06;;;9.59;62.58
20987;BME280;10652;50.306;8.570;2024-02-21T10:07:48;98282.28;;;9.71;62.18
20987;BME280;10652;50.306;8.570;2024-02-21T10:11:51;98273.03;;;9.84;62.16
20987;BME280;10652;50.306;8.570;2024-02-21T10:16:04;98269.34;;;9.88;60.87
20987;BME280;10652;50.306;8.570;2024-02-21T10:20:08;98250.13;;;9.87;60.71
20987;BME280;10652;50.306;8.570;2024-02-21T10:24:12;98243.41;;;10.02;61.08
20987;BME280;10652;50.306;8.570;2024-02-21T10:28:15;98240.63;;;10.05;60.46
20987;BME280;10652;50.306;8.570;2024-02-21T10:32:18;98238.88;;;10.06;59.63
20987;BME280;10652;50.306;8.570;2024-02-21T10:36:20;98238.09;;;10.03;58.89
20987;BME280;10652;50.306;8.570;2024-02-21T10:40:27;98228.44;;;10.04;58.94
20987;BME280;10652;50.306;8.570;2024-02-21T10:44:36;98221.97;;;9.91;59.69
20987;BME280;10652;50.306;8.570;2024-02-21T10:48:44;98217.69;;;9.90;60.13
20987;BME280;10652;50.306;8.570;2024-02-21T10:52:56;98210.44;;;9.95;60.48
20987;BME280;10652;50.306;8.570;2024-02-21T10:57:03;98209.34;;;10.00;60.57
20987;BME280;10652;50.306;8.570;2024-02-21T11:01:07;98203.41;;;9.95;60.22
20987;BME280;10652;50.306;8.570;2024-02-21T11:05:10;98200.22;;;10.09;60.68
20987;BME280;10652;50.306;8.570;2024-02-21T11:09:13;98195.63;;;10.14;59.72
20987;BME280;10652;50.306;8.570;2024-02-21T11:13:15;98183.09;;;10.21;58.95
20987;BME280;10652;50.306;8.570;2024-02-21T11:17:19;98166.09;;;10.29;58.86
20987;BME280;10652;50.306;8.570;2024-02-21T11:21:33;98167.50;;;10.36;58.85
20987;BME280;10652;50.306;8.570;2024-02-21T11:25:36;98155.59;;;10.29;58.77
20987;BME280;10652;50.306;8.570;2024-02-21T11:33:47;98150.59;;;10.43;58.58
20987;BME280;10652;50.306;8.570;2024-02-21T11:37:49;98137.44;;;10.43;58.01
20987;BME280;10652;50.306;8.570;2024-02-21T11:42:02;98119.72;;;10.48;57.67
20987;BME280;10652;50.306;8.570;2024-02-21T11:46:04;98110.47;;;10.59;57.33
20987;BME280;10652;50.306;8.570;2024-02-21T11:50:10;98111.84;;;10.67;56.02
20987;BME280;10652;50.306;8.570;2024-02-21T11:54:13;98105.59;;;10.70;55.66
20987;BME280;10652;50.306;8.570;2024-02-21T11:58:18;98088.97;;;10.69;56.50
20987;BME280;10652;50.306;8.570;2024-02-21T12:02:20;98089.03;;;10.68;56.90
20987;BME280;10652;50.306;8.570;2024-02-21T12:06:23;98074.00;;;10.71;57.30
20987;BME280;10652;50.306;8.570;2024-02-21T12:10:28;98072.97;;;10.74;56.55
20987;BME280;10652;50.306;8.570;2024-02-21T12:14:32;98050.13;;;10.76;56.80
20987;BME280;10652;50.306;8.570;2024-02-21T12:18:34;98053.41;;;10.81;56.53
20987;BME280;10652;50.306;8.570;2024-02-21T12:22:39;98042.03;;;10.80;56.49
20987;BME280;10652;50.306;8.570;2024-02-21T12:26:43;98028.94;;;10.79;56.27
20987;BME280;10652;50.306;8.570;2024-02-21T12:30:45;98023.97;;;10.73;56.43
20987;BME280;10652;50.306;8.570;2024-02-21T12:34:47;98000.84;;;10.81;56.01
20987;BME280;10652;50.306;8.570;2024-02-21T12:38:55;97990.44;;;10.78;55.44
20987;BME280;10652;50.306;8.570;2024-02-21T12:43:00;97986.00;;;10.80;55.00
20987;BME280;10652;50.306;8.570;2024-02-21T12:47:05;97986.00;;;10.80;55.84
20987;BME280;10652;50.306;8.570;2024-02-21T12:51:07;97992.31;;;10.76;55.06
20987;BME280;10652;50.306;8.570;2024-02-21T12:55:09;97989.19;;;10.68;55.06
20987;BME280;10652;50.306;8.570;2024-02-21T12:59:13;97987.56;;;10.65;55.66
20987;BME280;10652;50.306;8.570;2024-02-21T13:03:16;97984.09;;;10.65;55.29
20987;BME280;10652;50.306;8.570;2024-02-21T13:07:18;97968.72;;;10.57;54.94
20987;BME280;10652;50.306;8.570;2024-02-21T13:11:21;97968.38;;;10.46;55.27
20987;BME280;10652;50.306;8.570;2024-02-21T13:15:23;97955.59;;;10.38;55.96
20987;BME280;10652;50.306;8.570;2024-02-21T13:19:25;97942.84;;;10.31;56.35
20987;BME280;10652;50.306;8.570;2024-02-21T13:23:27;97934.69;;;10.18;56.86
20987;BME280;10652;50.306;8.570;2024-02-21T13:27:29;97915.06;;;10.08;57.83
20987;BME280;10652;50.306;8.570;2024-02-21T13:31:32;97910.41;;;10.13;58.87
20987;BME280;10652;50.306;8.570;2024-02-21T13:35:34;97902.84;;;10.07;58.81
20987;BME280;10652;50.306;8.570;2024-02-21T13:39:38;97897.41;;;10.12;60.06
20987;BME280;10652;50.306;8.570;2024-02-21T13:43:40;97881.72;;;10.10;59.28
20987;BME280;10652;50.306;8.570;2024-02-21T13:47:43;97873.69;;;10.13;60.00
20987;BME280;10652;50.306;8.570;2024-02-21T13:51:45;97872.94;;;10.28;60.14
20987;BME280;10652;50.306;8.570;2024-02-21T13:55:47;97853.13;;;10.40;60.17
20987;BME280;10652;50.306;8.570;2024-02-21T13:59:49;97847.47;;;10.30;59.80
20987;BME280;10652;50.306;8.570;2024-02-21T14:03:52;97838.34;;;10.20;60.53
20987;BME280;10652;50.306;8.570;2024-02-21T14:07:55;97838.63;;;10.14;61.22
20987;BME280;10652;50.306;8.570;2024-02-21T14:11:57;97822.41;;;10.06;61.20
20987;BME280;10652;50.306;8.570;2024-02-21T14:16:00;97818.53;;;9.96;61.79
20987;BME280;10652;50.306;8.570;2024-02-21T14:20:02;97805.09;;;9.85;61.94
20987;BME280;10652;50.306;8.570;2024-02-21T14:24:06;97800.53;;;9.70;62.24
20987;BME280;10652;50.306;8.570;2024-02-21T14:28:09;97808.84;;;9.60;62.92
20987;BME280;10652;50.306;8.570;2024-02-21T14:32:12;97790.91;;;9.51;62.95
20987;BME280;10652;50.306;8.570;2024-02-21T14:36:15;97784.38;;;9.41;63.13
20987;BME280;10652;50.306;8.570;2024-02-21T14:40:17;97774.13;;;9.37;63.33
20987;BME280;10652;50.306;8.570;2024-02-21T14:44:21;97757.97;;;9.27;63.54
20987;BME280;10652;50.306;8.570;2024-02-21T14:48:23;97734.94;;;9.15;63.31
20987;BME280;10652;50.306;8.570;2024-02-21T14:52:25;97741.00;;;9.17;63.88
20987;BME280;10652;50.306;8.570;2024-02-21T14:56:29;97737.56;;;9.15;64.90
20987;BME280;10652;50.306;8.570;2024-02-21T15:00:33;97714.91;;;9.14;65.48
20987;BME280;10652;50.306;8.570;2024-02-21T15:04:35;97710.72;;;9.10;66.03
20987;BME280;10652;50.306;8.570;2024-02-21T15:08:37;97706.28;;;9.12;67.04
20987;BME280;10652;50.306;8.570;2024-02-21T15:12:39;97682.59;;;9.13;67.10
20987;BME280;10652;50.306;8.570;2024-02-21T15:16:42;97679.13;;;9.13;66.97
20987;BME280;10652;50.306;8.570;2024-02-21T15:20:44;97679.66;;;9.02;66.85
20987;BME280;10652;50.306;8.570;2024-02-21T15:24:47;97667.75;;;8.95;66.66
20987;BME280;10652;50.306;8.570;2024-02-21T15:28:50;97658.28;;;8.93;66.85
20987;BME280;10652;50.306;8.570;2024-02-21T15:32:53;97648.22;;;8.84;66.85
20987;BME280;10652;50.306;8.570;2024-02-21T15:36:57;97629.25;;;8.79;67.15
20987;BME280;10652;50.306;8.570;2024-02-21T15:40:59;97622.69;;;8.70;66.79
20987;BME280;10652;50.306;8.570;2024-02-21T15:45:02;97614.13;;;8.66;67.02
20987;BME280;10652;50.306;8.570;2024-02-21T15:49:06;97614.25;;;8.63;66.94
20987;BME280;10652;50.306;8.570;2024-02-21T15:53:09;97611.06;;;8.57;67.44
20987;BME280;10652;50.306;8.570;2024-02-21T15:57:12;97609.16;;;8.60;67.55
20987;BME280;10652;50.306;8.570;2024-02-21T16:01:15;97618.00;;;8.58;67.17
20987;BME280;10652;50.306;8.570;2024-02-21T16:05:17;97616.38;;;8.55;67.53
20987;BME280;10652;50.306;8.570;2024-02-21T16:09:19;97604.50;;;8.48;68.12
20987;BME280;10652;50.306;8.570;2024-02-21T16:13:21;97608.03;;;8.47;68.63
20987;BME280;10652;50.306;8.570;2024-02-21T16:17:24;97594.94;;;8.47;69.94
20987;BME280;10652;50.306;8.570;2024-02-21T16:21:26;97581.19;;;8.42;70.78
20987;BME280;10652;50.306;8.570;2024-02-21T16:25:29;97582.28;;;8.38;72.65
20987;BME280;10652;50.306;8.570;2024-02-21T16:29:31;97564.38;;;8.29;74.23
20987;BME280;10652;50.306;8.570;2024-02-21T16:33:33;97560.41;;;8.20;75.46
20987;BME280;10652;50.306;8.570;2024-02-21T16:37:35;97558.88;;;8.15;76.41
20987;BME280;10652;50.306;8.570;2024-02-21T16:41:39;97543.53;;;8.07;77.21
20987;BME280;10652;50.306;8.570;2024-02-21T16:45:41;97522.94;;;8.00;77.91
20987;BME280;10652;50.306;8.570;2024-02-21T16:49:44;97546.69;;;7.95;78.27
20987;BME280;10652;50.306;8.570;2024-02-21T16:53:46;97546.06;;;7.90;78.52
20987;BME280;10652;50.306;8.570;2024-02-21T16:57:48;97541.75;;;7.89;79.07
20987;BME280;10652;50.306;8.570;2024-02-21T17:01:50;97537.28;;;7.91;78.85
20987;BME280;10652;50.306;8.570;2024-02-21T17:05:54;97518.97;;;7.91;79.00
20987;BME280;10652;50.306;8.570;2024-02-21T17:10:05;97516.56;;;7.87;78.74
20987;BME280;10652;50.306;8.570;2024-02-21T17:14:07;97506.25;;;7.83;79.17
20987;BME280;10652;50.306;8.570;2024-02-21T17:18:09;97489.00;;;7.79;79.24
20987;BME280;10652;50.306;8.570;2024-02-21T17:22:11;97485.88;;;7.71;79.89
20987;BME280;10652;50.306;8.570;2024-02-21T17:26:14;97488.72;;;7.67;80.40
20987;BME280;10652;50.306;8.570;2024-02-21T17:30:16;97484.38;;;7.66;80.48
20987;BME280;10652;50.306;8.570;2024-02-21T17:34:18;97475.84;;;7.62;81.14
20987;BME280;10652;50.306;8.570;2024-02-21T17:38:22;97473.22;;;7.62;80.70
20987;BME280;10652;50.306;8.570;2024-02-21T17:42:27;97467.84;;;7.65;80.95
20987;BME280;10652;50.306;8.570;2024-02-21T17:46:29;97456.59;;;7.63;80.40
20987;BME280;10652;50.306;8.570;2024-02-21T17:50:31;97453.38;;;7.58;80.20
20987;BME280;10652;50.306;8.570;2024-02-21T17:54:33;97452.44;;;7.59;80.38
20987;BME280;10652;50.306;8.570;2024-02-21T17:58:35;97440.38;;;7.57;80.39
20987;BME280;10652;50.306;8.570;2024-02-21T18:02:38;97435.34;;;7.52;80.40
20987;BME280;10652;50.306;8.570;2024-02-21T18:06:40;97443.19;;;7.52;80.28
20987;BME280;10652;50.306;8.570;2024-02-21T18:10:42;97422.41;;;7.49;80.17
20987;BME280;10652;50.306;8.570;2024-02-21T18:14:44;97412.88;;;7.48;80.08
20987;BME280;10652;50.306;8.570;2024-02-21T18:18:46;97426.78;;;7.49;79.46
20987;BME280;10652;50.306;8.570;2024-02-21T18:22:48;97422.63;;;7.45;78.99
20987;BME280;10652;50.306;8.570;2024-02-21T18:26:51;97427.75;;;7.46;78.73
20987;BME280;10652;50.306;8.570;2024-02-21T18:30:53;97423.34;;;7.48;78.37
20987;BME280;10652;50.306;8.570;2024-02-21T18:34:55;97420.63;;;7.50;78.44
20987;BME280;10652;50.306;8.570;2024-02-21T18:38:58;97408.41;;;7.50;78.15
20987;BME280;10652;50.306;8.570;2024-02-21T18:43:00;97401.44;;;7.51;77.91
20987;BME280;10652;50.306;8.570;2024-02-21T18:47:03;97409.34;;;7.49;77.64
20987;BME280;10652;50.306;8.570;2024-02-21T18:51:05;97411.13;;;7.49;77.83
20987;BME280;10652;50.306;8.570;2024-02-21T18:55:08;97398.09;;;7.47;77.41
20987;BME280;10652;50.306;8.570;2024-02-21T18:59:12;97407.00;;;7.43;77.10
20987;BME280;10652;50.306;8.570;2024-02-21T19:03:14;97400.78;;;7.46;77.24
20987;BME280;10652;50.306;8.570;2024-02-21T19:07:17;97379.88;;;7.46;76.44
20987;BME280;10652;50.306;8.570;2024-02-21T19:11:19;97372.84;;;7.66;82.15
20987;BME280;10652;50.306;8.570;2024-02-21T19:15:21;97352.94;;;8.00;83.13
20987;BME280;10652;50.306;8.570;2024-02-21T19:19:23;97338.19;;;7.99;76.78
20987;BME280;10652;50.306;8.570;2024-02-21T19:23:25;97332.13;;;7.79;76.47
20987;BME280;10652;50.306;8.570;2024-02-21T19:27:27;97334.75;;;7.61;77.14
20987;BME280;10652;50.306;8.570;2024-02-21T19:31:29;97319.88;;;7.44;78.19
20987;BME280;10652;50.306;8.570;2024-02-21T19:35:32;97316.88;;;7.33;79.88
20987;BME280;10652;50.306;8.570;2024-02-21T19:39:34;97324.22;;;7.25;81.03
20987;BME280;10652;50.306;8.570;2024-02-21T19:43:36;97326.19;;;7.20;82.47
20987;BME280;10652;50.306;8.570;2024-02-21T19:47:39;97312.75;;;7.09;84.16
20987;BME280;10652;50.306;8.570;2024-02-21T19:51:45;97307.13;;;6.99;85.87
20987;BME280;10652;50.306;8.570;2024-02-21T19:55:48;97295.94;;;6.96;87.56
20987;BME280;10652;50.306;8.570;2024-02-21T19:59:51;97276.81;;;6.95;88.70
20987;BME280;10652;50.306;8.570;2024-02-21T20:03:53;97261.38;;;6.90;89.29
20987;BME280;10652;50.306;8.570;2024-02-21T20:07:55;97253.75;;;6.86;90.83
20987;BME280;10652;50.306;8.570;2024-02-21T20:11:58;97235.66;;;6.81;91.95
20987;BME280;10652;50.306;8.570;2024-02-21T20:16:01;97232.44;;;6.76;92.96
20987;BME280;10652;50.306;8.570;2024-02-21T20:20:03;97221.44;;;6.70;94.52
20987;BME280;10652;50.306;8.570;2024-02-21T20:24:08;97206.13;;;6.62;95.46
20987;BME280;10652;50.306;8.570;2024-02-21T20:28:14;97197.84;;;6.53;96.62
20987;BME280;10652;50.306;8.570;2024-02-21T20:32:16;97192.91;;;6.46;98.27
20987;BME280;10652;50.306;8.570;2024-02-21T20:36:18;97169.47;;;6.45;98.97
20987;BME280;10652;50.306;8.570;2024-02-21T20:40:21;97151.41;;;6.40;100.00
20987;BME280;10652;50.306;8.570;2024-02-21T20:44:23;97145.25;;;6.43;100.00
20987;BME280;10652;50.306;8.570;2024-02-21T20:48:29;97128.16;;;6.36;100.00
20987;BME280;10652;50.306;8.570;2024-02-21T20:52:32;97109.06;;;6.35;100.00
20987;BME280;10652;50.306;8.570;2024-02-21T20:56:35;97097.78;;;6.35;100.00
20987;BME280;10652;50.306;8.570;2024-02-21T21:00:38;97083.91;;;6.34;100.00
20987;BME280;10652;50.306;8.570;2024-02-21T21:04:40;97069.34;;;6.29;100.00
20987;BME280;10652;50.306;8.570;2024-02-21T21:08:42;97060.22;;;6.19;100.00
20987;BME280;10652;50.306;8.570;2024-02-21T21:12:44;97065.88;;;6.10;100.00
20987;BME280;10652;50.306;8.570;2024-02-21T21:16:46;97075.53;;;6.08;100.00
20987;BME280;10652;50.306;8.570;2024-02-21T21:20:49;97073.84;;;6.07;100.00
20987;BME280;10652;50.306;8.570;2024-02-21T21:24:52;97076.44;;;6.07;100.00
20987;BME280;10652;50.306;8.570;2024-02-21T21:28:54;97077.00;;;6.13;100.00
20987;BME280;10652;50.306;8.570;2024-02-21T21:32:58;97066.25;;;6.21;100.00
20987;BME280;10652;50.306;8.570;2024-02-21T21:37:04;97065.53;;;6.17;100.00
20987;BME280;10652;50.306;8.570;2024-02-21T21:41:06;97063.69;;;6.19;100.00